createdAt,value
2018-11-07T00:01:36.899Z,94600.80
2018-11-07T00:04:41.393Z,94602.72
2018-11-07T00:07:45.777Z,94602.20
2018-11-07T00:10:50.338Z,94600.62
2018-11-07T00:14:05.046Z,94598.86
2018-11-07T00:17:09.451Z,94595.55
2018-11-07T00:20:13.979Z,94596.67
2018-11-07T00:23:18.404Z,94599.40
2018-11-07T00:26:22.861Z,94598.97
2018-11-07T00:29:27.326Z,94603.91
2018-11-07T00:32:31.850Z,94598.70
2018-11-07T00:39:10.567Z,94592.02
2018-11-07T00:42:15.133Z,94594.94
2018-11-07T00:45:25.161Z,94592.64
2018-11-07T00:48:30.334Z,94604.62
2018-11-07T00:51:40.637Z,94597.19
2018-11-07T00:54:46.128Z,94605.31
2018-11-07T00:57:50.621Z,94603.84
2018-11-07T01:00:56.056Z,94606.95
2018-11-07T01:04:00.439Z,94605.94
2018-11-07T01:07:05.928Z,94606.95
2018-11-07T01:10:10.704Z,94605.00
2018-11-07T01:13:15.120Z,94601.70
2018-11-07T01:16:20.548Z,94608.08
2018-11-07T01:19:31.106Z,94608.20
2018-11-07T01:22:35.668Z,94605.36
2018-11-07T01:25:46.308Z,94601.90
2018-11-07T01:28:55.996Z,94600.42
2018-11-07T01:32:00.534Z,94599.30
2018-11-07T01:35:09.185Z,94598.28
2018-11-07T01:38:13.684Z,94593.50
2018-11-07T01:41:18.073Z,94587.20
2018-11-07T01:44:22.569Z,94583.16
2018-11-07T01:47:27.225Z,94577.10
2018-11-07T01:50:32.121Z,94577.19
2018-11-07T01:53:47.113Z,94573.06
2018-11-07T01:56:51.810Z,94567.08
2018-11-07T02:00:09.764Z,94560.70
2018-11-07T02:03:14.259Z,94555.38
2018-11-07T02:06:18.644Z,94556.05
2018-11-07T02:09:22.837Z,94555.19
2018-11-07T02:12:41.890Z,94554.52
2018-11-07T02:15:54.265Z,94552.37
2018-11-07T02:19:03.844Z,94548.23
2018-11-07T02:22:08.735Z,94559.27
2018-11-07T02:25:13.211Z,94552.00
2018-11-07T02:28:17.628Z,94548.20
2018-11-07T02:31:22.025Z,94542.97
2018-11-07T02:34:32.491Z,94543.06
2018-11-07T02:37:36.843Z,94544.42
2018-11-07T02:40:43.309Z,94548.80
2018-11-07T02:43:53.008Z,94544.07
2018-11-07T02:46:57.437Z,94553.40
2018-11-07T02:50:01.686Z,94550.81
2018-11-07T02:53:10.408Z,94542.81
2018-11-07T02:56:16.842Z,94538.27
2018-11-07T02:59:21.003Z,94540.36
2018-11-07T03:02:27.601Z,94547.83
2018-11-07T03:05:32.011Z,94543.70
2018-11-07T03:08:41.025Z,94546.34
2018-11-07T03:11:45.365Z,94545.06
2018-11-07T03:14:49.776Z,94543.87
2018-11-07T03:17:54.153Z,94545.31
2018-11-07T03:20:58.548Z,94533.45
2018-11-07T03:24:03.096Z,94521.13
2018-11-07T03:27:07.479Z,94531.38
2018-11-07T03:30:13.959Z,94521.59
2018-11-07T03:33:18.822Z,94530.22
2018-11-07T03:36:23.306Z,94531.53
2018-11-07T03:39:27.800Z,94525.38
2018-11-07T03:42:32.293Z,94520.73
2018-11-07T03:45:41.972Z,94524.55
2018-11-07T03:48:51.776Z,94531.66
2018-11-07T03:51:56.283Z,94527.34
2018-11-07T03:55:00.844Z,94538.94
2018-11-07T03:58:05.641Z,94533.43
2018-11-07T04:01:10.081Z,94529.47
2018-11-07T04:04:14.484Z,94528.80
2018-11-07T04:07:18.926Z,94527.16
2018-11-07T04:10:24.489Z,94521.75
2018-11-07T04:13:28.892Z,94515.77
2018-11-07T04:16:33.344Z,94512.56
2018-11-07T04:19:39.962Z,94511.96
2018-11-07T04:22:45.657Z,94516.30
2018-11-07T04:25:50.245Z,94517.08
2018-11-07T04:28:54.998Z,94517.38
2018-11-07T04:31:59.972Z,94520.97
2018-11-07T04:35:04.529Z,94523.78
2018-11-07T04:38:09.178Z,94523.16
2018-11-07T04:41:13.654Z,94516.66
2018-11-07T04:44:18.166Z,94514.27
2018-11-07T04:47:22.428Z,94510.45
2018-11-07T04:50:28.820Z,94504.94
2018-11-07T04:53:34.455Z,94506.26
2018-11-07T04:56:39.050Z,94516.13
2018-11-07T04:59:45.564Z,94503.96
2018-11-07T05:02:50.094Z,94496.19
2018-11-07T05:05:54.640Z,94497.06
2018-11-07T05:08:59.096Z,94503.42
2018-11-07T05:12:03.505Z,94505.52
2018-11-07T05:15:08.661Z,94504.57
2018-11-07T05:18:13.217Z,94495.20
2018-11-07T05:21:17.706Z,94494.12
2018-11-07T05:24:22.061Z,94507.07
2018-11-07T05:27:26.507Z,94505.04
2018-11-07T05:30:31.100Z,94499.70
2018-11-07T05:33:35.480Z,94500.23
2018-11-07T05:36:39.872Z,94503.25
2018-11-07T05:39:44.282Z,94506.43
2018-11-07T05:42:48.800Z,94516.59
2018-11-07T05:45:58.940Z,94517.70
2018-11-07T05:49:04.488Z,94517.30
2018-11-07T05:52:08.948Z,94509.06
2018-11-07T05:55:13.348Z,94505.59
2018-11-07T05:58:17.761Z,94509.20
2018-11-07T06:01:22.236Z,94508.36
2018-11-07T06:04:26.812Z,94509.55
2018-11-07T06:07:31.968Z,94507.75
2018-11-07T06:10:36.430Z,94517.90
2018-11-07T06:13:40.860Z,94517.16
2018-11-07T06:16:45.416Z,94512.89
2018-11-07T06:19:49.822Z,94514.40
2018-11-07T06:22:54.328Z,94508.70
2018-11-07T06:25:58.695Z,94509.32
2018-11-07T06:29:03.108Z,94518.30
2018-11-07T06:32:07.532Z,94512.61
2018-11-07T06:35:12.344Z,94512.05
2018-11-07T06:38:16.795Z,94514.70
2018-11-07T06:41:21.264Z,94506.98
2018-11-07T06:44:25.751Z,94510.22
2018-11-07T06:47:30.150Z,94509.69
2018-11-07T06:50:34.737Z,94509.84
2018-11-07T06:53:39.235Z,94513.02
2018-11-07T06:56:43.986Z,94517.38
2018-11-07T06:59:48.493Z,94529.36
2018-11-07T07:02:53.000Z,94527.87
2018-11-07T07:05:57.541Z,94527.28
2018-11-07T07:09:02.047Z,94525.25
2018-11-07T07:12:06.633Z,94525.12
2018-11-07T07:15:13.698Z,94524.95
2018-11-07T07:18:18.198Z,94529.80
2018-11-07T07:21:22.585Z,94538.53
2018-11-07T07:24:27.060Z,94541.06
2018-11-07T07:27:31.565Z,94543.63
2018-11-07T07:30:39.490Z,94541.93
2018-11-07T07:33:43.941Z,94538.20
2018-11-07T07:36:48.485Z,94544.02
2018-11-07T07:39:52.899Z,94541.80
2018-11-07T07:42:57.384Z,94547.69
2018-11-07T07:46:01.826Z,94550.02
2018-11-07T07:49:07.341Z,94538.33
2018-11-07T07:52:12.156Z,94541.13
2018-11-07T07:55:16.544Z,94539.75
2018-11-07T07:58:21.032Z,94530.65
2018-11-07T08:01:25.513Z,94528.89
2018-11-07T08:04:30.044Z,94525.74
2018-11-07T08:07:34.730Z,94523.97
2018-11-07T08:10:40.225Z,94525.33
2018-11-07T08:13:44.758Z,94519.92
2018-11-07T08:16:49.231Z,94521.36
2018-11-07T08:19:53.697Z,94521.13
2018-11-07T08:22:58.136Z,94524.55
2018-11-07T08:26:02.521Z,94526.53
2018-11-07T08:29:07.079Z,94525.44
2018-11-07T08:32:11.540Z,94528.52
2018-11-07T08:35:16.389Z,94526.53
2018-11-07T08:38:20.928Z,94520.02
2018-11-07T08:41:25.420Z,94518.33
2018-11-07T08:44:29.993Z,94511.88
2018-11-07T08:47:34.609Z,94510.06
2018-11-07T08:50:40.352Z,94506.69
2018-11-07T08:53:44.854Z,94514.14
2018-11-07T08:56:49.621Z,94517.09
2018-11-07T08:59:57.484Z,94518.27
2018-11-07T09:03:02.028Z,94514.41
2018-11-07T09:06:06.665Z,94521.28
2018-11-07T09:09:12.465Z,94530.98
2018-11-07T09:12:17.141Z,94536.08
2018-11-07T09:15:22.915Z,94534.67
2018-11-07T09:18:28.664Z,94531.70
2018-11-07T09:21:33.412Z,94526.55
2018-11-07T09:24:37.918Z,94530.83
2018-11-07T09:27:42.828Z,94534.24
2018-11-07T09:30:47.500Z,94526.88
2018-11-07T09:33:52.189Z,94527.87
2018-11-07T09:36:56.920Z,94526.85
2018-11-07T09:40:01.540Z,94524.08
2018-11-07T09:43:06.260Z,94524.80
2018-11-07T09:46:10.960Z,94525.08
2018-11-07T09:49:15.786Z,94523.20
2018-11-07T09:52:20.427Z,94519.96
2018-11-07T09:55:25.057Z,94520.00
2018-11-07T09:58:29.610Z,94517.12
2018-11-07T10:01:34.172Z,94515.80
2018-11-07T10:04:38.721Z,94508.41
2018-11-07T10:07:43.428Z,94505.17
2018-11-07T10:10:48.004Z,94509.28
2018-11-07T10:13:52.518Z,94503.84
2018-11-07T10:16:57.205Z,94505.63
2018-11-07T10:20:01.775Z,94501.73
2018-11-07T10:23:06.469Z,94497.35
2018-11-07T10:26:11.062Z,94492.77
2018-11-07T10:29:15.832Z,94485.44
2018-11-07T10:32:20.344Z,94486.14
2018-11-07T10:35:25.039Z,94485.45
2018-11-07T10:38:29.703Z,94490.03
2018-11-07T10:41:34.354Z,94494.12
2018-11-07T10:44:38.931Z,94489.89
2018-11-07T10:47:45.131Z,94500.09
2018-11-07T10:50:49.727Z,94500.11
2018-11-07T10:53:54.533Z,94502.97
2018-11-07T10:57:00.099Z,94497.36
2018-11-07T11:00:05.594Z,94488.94
2018-11-07T11:03:15.316Z,94484.55
2018-11-07T11:06:20.018Z,94478.21
2018-11-07T11:09:27.210Z,94472.80
2018-11-07T11:12:31.797Z,94465.91
2018-11-07T11:15:36.478Z,94456.56
2018-11-07T11:18:41.215Z,94457.59
2018-11-07T11:21:45.912Z,94458.86
2018-11-07T11:24:50.738Z,94454.92
2018-11-07T11:27:55.434Z,94450.61
2018-11-07T11:31:00.172Z,94447.41
2018-11-07T11:34:05.376Z,94449.02
2018-11-07T11:37:10.043Z,94449.71
2018-11-07T11:40:16.356Z,94448.09
2018-11-07T11:43:20.984Z,94443.55
2018-11-07T11:46:25.584Z,94445.50
2018-11-07T11:49:30.192Z,94438.61
2018-11-07T11:52:35.869Z,94443.80
2018-11-07T11:55:40.444Z,94437.31
2018-11-07T11:58:46.438Z,94436.84
2018-11-07T12:01:50.986Z,94435.08
2018-11-07T12:04:55.583Z,94434.30
2018-11-07T12:08:00.172Z,94431.59
2018-11-07T12:11:04.858Z,94430.82
2018-11-07T12:14:09.586Z,94424.83
2018-11-07T12:17:14.309Z,94430.24
2018-11-07T12:20:19.145Z,94426.45
2018-11-07T12:23:23.799Z,94431.70
2018-11-07T12:26:28.663Z,94427.75
2018-11-07T12:29:33.679Z,94430.63
2018-11-07T12:32:38.368Z,94426.44
2018-11-07T12:35:42.945Z,94437.93
2018-11-07T12:38:47.820Z,94436.80
2018-11-07T12:41:52.543Z,94438.52
2018-11-07T12:44:57.354Z,94431.80
2018-11-07T12:48:02.441Z,94431.23
2018-11-07T12:51:07.319Z,94427.98
2018-11-07T12:54:12.127Z,94431.63
2018-11-07T12:57:17.543Z,94429.13
2018-11-07T13:00:24.467Z,94426.47
2018-11-07T13:03:30.222Z,94434.89
2018-11-07T13:06:35.479Z,94433.93
2018-11-07T13:09:44.948Z,94440.05
2018-11-07T13:12:51.096Z,94444.09
2018-11-07T13:15:58.033Z,94447.13
2018-11-07T13:19:11.377Z,94453.25
2018-11-07T13:22:18.525Z,94446.56
2018-11-07T13:25:24.552Z,94447.67
2018-11-07T13:28:29.478Z,94452.66
2018-11-07T13:31:34.499Z,94453.61
2018-11-07T13:34:39.507Z,94454.58
2018-11-07T13:37:45.619Z,94455.48
2018-11-07T13:40:50.540Z,94455.50
2018-11-07T13:43:55.721Z,94461.25
2018-11-07T13:47:01.169Z,94463.38
2018-11-07T13:50:16.272Z,94462.78
2018-11-07T13:53:21.332Z,94459.12
2018-11-07T13:56:26.630Z,94463.24
2018-11-07T13:59:31.310Z,94461.85
2018-11-07T14:02:36.333Z,94472.59
2018-11-07T14:05:41.262Z,94466.04
2018-11-07T14:08:45.954Z,94467.91
2018-11-07T14:11:51.301Z,94469.75
2018-11-07T14:14:56.234Z,94471.03
2018-11-07T14:18:01.054Z,94472.16
2018-11-07T14:21:05.942Z,94475.73
2018-11-07T14:24:11.553Z,94474.19
2018-11-07T14:27:16.539Z,94473.58
2018-11-07T14:30:22.439Z,94469.63
2018-11-07T14:33:27.871Z,94468.59
2018-11-07T14:36:33.296Z,94461.34
2018-11-07T14:39:37.969Z,94460.47
2018-11-07T14:42:42.640Z,94467.00
2018-11-07T14:45:47.281Z,94471.41
2018-11-07T14:48:51.728Z,94473.24
2018-11-07T14:51:56.367Z,94476.55
2018-11-07T14:55:02.237Z,94475.42
2018-11-07T14:58:06.966Z,94477.61
2018-11-07T15:01:11.973Z,94475.83
2018-11-07T15:04:16.513Z,94477.63
2018-11-07T15:07:21.166Z,94483.03
2018-11-07T15:10:25.734Z,94480.24
2018-11-07T15:13:30.431Z,94478.49
2018-11-07T15:16:35.105Z,94477.39
2018-11-07T15:19:39.483Z,94476.67
2018-11-07T15:22:44.053Z,94475.31
2018-11-07T15:25:48.681Z,94479.61
2018-11-07T15:28:53.140Z,94480.33
2018-11-07T15:31:57.505Z,94478.11
2018-11-07T15:35:01.984Z,94477.20
2018-11-07T15:38:06.533Z,94477.56
2018-11-07T15:41:11.070Z,94490.81
2018-11-07T15:44:15.629Z,94500.42
2018-11-07T15:47:20.218Z,94492.51
2018-11-07T15:50:30.357Z,94496.22
2018-11-07T15:53:35.549Z,94503.61
2018-11-07T15:56:40.275Z,94504.19
2018-11-07T15:59:44.848Z,94514.94
2018-11-07T16:02:50.267Z,94520.34
2018-11-07T16:05:55.325Z,94526.43
2018-11-07T16:12:26.594Z,94520.61
2018-11-07T16:15:38.139Z,94523.55
2018-11-07T16:19:04.902Z,94518.22
2018-11-07T16:22:12.034Z,94528.45
2018-11-07T16:25:20.864Z,94524.02
2018-11-07T16:28:25.435Z,94531.06
2018-11-07T16:31:29.787Z,94541.27
2018-11-07T16:34:34.264Z,94549.63
2018-11-07T16:37:38.801Z,94553.20
2018-11-07T16:40:46.700Z,94562.72
2018-11-07T16:43:53.083Z,94568.70
2018-11-07T16:46:58.197Z,94565.84
2018-11-07T16:50:02.820Z,94572.72
2018-11-07T16:53:08.270Z,94579.66
2018-11-07T16:56:13.808Z,94592.36
2018-11-07T16:59:20.094Z,94598.91
2018-11-07T17:02:25.592Z,94591.05
2018-11-07T17:05:32.060Z,94597.68
2018-11-07T17:08:36.507Z,94599.20
2018-11-07T17:11:41.963Z,94606.95
2018-11-07T17:14:46.485Z,94611.48
2018-11-07T17:17:51.960Z,94621.98
2018-11-07T17:20:56.576Z,94620.95
2018-11-07T17:24:01.110Z,94630.45
2018-11-07T17:27:05.759Z,94630.91
2018-11-07T17:30:12.080Z,94637.14
2018-11-07T17:33:16.745Z,94653.98
2018-11-07T17:36:21.627Z,94654.91
2018-11-07T17:39:26.148Z,94658.81
2018-11-07T17:42:38.493Z,94663.31
2018-11-07T17:45:46.049Z,94670.81
2018-11-07T17:48:53.999Z,94674.95
2018-11-07T17:52:02.940Z,94680.76
2018-11-07T17:55:12.857Z,94686.14
2018-11-07T17:58:22.993Z,94693.66
2018-11-07T18:01:37.962Z,94699.41
2018-11-07T18:04:44.894Z,94707.83
2018-11-07T18:07:55.766Z,94711.03
2018-11-07T18:11:07.196Z,94726.05
2018-11-07T18:14:19.033Z,94728.92
2018-11-07T18:17:35.941Z,94731.80
2018-11-07T18:20:58.260Z,94740.04
2018-11-07T18:24:02.916Z,94748.02
2018-11-07T18:27:07.699Z,94747.52
2018-11-07T18:30:14.462Z,94758.30
2018-11-07T18:33:19.228Z,94762.51
2018-11-07T18:36:24.284Z,94762.95
2018-11-07T18:39:36.229Z,94764.68
2018-11-07T18:42:41.983Z,94775.34
2018-11-07T18:45:47.384Z,94773.13
2018-11-07T18:48:53.496Z,94779.37
2018-11-07T18:52:00.274Z,94776.89
2018-11-07T18:55:06.587Z,94773.48
2018-11-07T18:58:18.945Z,94772.20
2018-11-07T19:01:30.009Z,94779.17
2018-11-07T19:04:41.637Z,94784.20
2018-11-07T19:07:54.114Z,94791.28
2018-11-07T19:14:33.688Z,94801.70
2018-11-07T19:17:38.500Z,94810.84
2018-11-07T19:20:42.881Z,94814.53
2018-11-07T19:23:47.290Z,94815.93
2018-11-07T19:26:51.803Z,94816.16
2018-11-07T19:29:56.121Z,94821.48
2018-11-07T19:33:00.714Z,94826.17
2018-11-07T19:36:05.478Z,94825.98
2018-11-07T19:39:10.436Z,94839.15
2018-11-07T19:42:14.828Z,94845.14
2018-11-07T19:45:20.097Z,94846.72
2018-11-07T19:48:24.516Z,94852.78
2018-11-07T19:51:28.852Z,94856.20
2018-11-07T19:54:33.161Z,94857.53
2018-11-07T19:57:37.584Z,94857.66
2018-11-07T20:00:41.893Z,94863.73
2018-11-07T20:03:46.301Z,94868.70
2018-11-07T20:06:51.008Z,94866.84
2018-11-07T20:09:55.486Z,94870.66
2018-11-07T20:13:00.009Z,94873.47
2018-11-07T20:16:04.561Z,94877.36
2018-11-07T20:19:09.073Z,94885.13
2018-11-07T20:22:14.501Z,94890.66
2018-11-07T20:25:18.899Z,94893.09
2018-11-07T20:28:23.272Z,94902.66
2018-11-07T20:31:27.715Z,94908.32
2018-11-07T20:34:32.758Z,94904.28
2018-11-07T20:37:37.153Z,94914.08
2018-11-07T20:40:41.577Z,94919.74
2018-11-07T20:43:46.014Z,94924.48
2018-11-07T20:46:50.468Z,94928.00
2018-11-07T20:49:55.146Z,94929.94
2018-11-07T20:52:59.604Z,94931.97
2018-11-07T20:56:04.247Z,94933.97
2018-11-07T20:59:09.335Z,94945.02
2018-11-07T21:02:13.705Z,94949.98
2018-11-07T21:05:18.358Z,94946.88
2018-11-07T21:08:22.767Z,94952.14
2018-11-07T21:11:27.175Z,94954.17
2018-11-07T21:14:31.618Z,94961.71
2018-11-07T21:17:36.239Z,94965.35
2018-11-07T21:20:40.874Z,94972.64
2018-11-07T21:23:45.311Z,94983.42
2018-11-07T21:26:49.926Z,94979.61
2018-11-07T21:30:25.416Z,94978.69
2018-11-07T21:33:29.911Z,94979.34
2018-11-07T21:36:34.765Z,94987.21
2018-11-07T21:39:39.142Z,94994.50
2018-11-07T21:42:44.126Z,94990.05
2018-11-07T21:45:48.637Z,94995.06
2018-11-07T21:48:53.301Z,94997.52
2018-11-07T21:51:57.729Z,95004.55
2018-11-07T21:55:02.024Z,95004.80
2018-11-07T21:58:06.575Z,95007.34
2018-11-07T22:01:10.993Z,95007.92
2018-11-07T22:04:15.334Z,95011.98
2018-11-07T22:07:19.716Z,95012.61
2018-11-07T22:10:24.031Z,95012.91
2018-11-07T22:13:28.396Z,95019.89
2018-11-07T22:16:32.824Z,95017.59
2018-11-07T22:19:37.141Z,95028.53
2018-11-07T22:22:41.474Z,95024.08
2018-11-07T22:25:47.023Z,95028.02
2018-11-07T22:28:51.325Z,95033.13
2018-11-07T22:31:55.641Z,95036.86
2018-11-07T22:35:00.009Z,95037.69
2018-11-07T22:38:04.373Z,95042.72
2018-11-07T22:41:08.693Z,95050.52
2018-11-07T22:44:12.995Z,95047.70
2018-11-07T22:47:17.336Z,95052.30
2018-11-07T22:50:21.944Z,95050.23
2018-11-07T22:53:26.252Z,95049.56
2018-11-07T22:56:30.710Z,95049.27
2018-11-07T22:59:35.034Z,95058.08
2018-11-07T23:02:39.392Z,95061.18
2018-11-07T23:05:43.710Z,95060.59
2018-11-07T23:08:48.037Z,95065.11
2018-11-07T23:11:52.562Z,95064.53
2018-11-07T23:14:56.881Z,95070.27
2018-11-07T23:18:01.190Z,95068.61
2018-11-07T23:21:06.252Z,95071.24
2018-11-07T23:24:10.782Z,95083.69
2018-11-07T23:27:15.096Z,95086.69
2018-11-07T23:30:19.401Z,95077.72
2018-11-07T23:33:23.793Z,95087.81
2018-11-07T23:36:28.108Z,95085.09
2018-11-07T23:39:32.525Z,95088.05
2018-11-07T23:42:36.872Z,95092.42
2018-11-07T23:45:41.184Z,95093.44
2018-11-07T23:48:45.556Z,95096.64
2018-11-07T23:51:50.740Z,95098.13
2018-11-07T23:54:55.309Z,95096.23
2018-11-07T23:58:00.239Z,95099.25
